createdAt,value
2022-12-25T00:00:00.662Z,101173.41
2022-12-25T00:02:27.075Z,101173.41
2022-12-25T00:04:53.514Z,101169.03
2022-12-25T00:07:19.856Z,101167.56
2022-12-25T00:09:46.191Z,101174.66
2022-12-25T00:12:12.528Z,101170.44
2022-12-25T00:14:38.848Z,101169.69
2022-12-25T00:17:05.180Z,101167.44
2022-12-25T00:19:31.657Z,101170.22
2022-12-25T00:21:58.192Z,101170.22
2022-12-25T00:24:24.760Z,101177.44
2022-12-25T00:26:51.284Z,101192.47
2022-12-25T00:29:17.849Z,101183.09
2022-12-25T00:31:44.554Z,101191.72
2022-12-25T00:34:11.201Z,101185.97
2022-12-25T00:36:41.620Z,101187.25
2022-12-25T00:39:12.283Z,101187.97
2022-12-25T00:41:57.465Z,101187.25
2022-12-25T00:44:24.077Z,101193.00
2022-12-25T00:46:50.668Z,101199.59
2022-12-25T00:49:17.193Z,101198.97
2022-12-25T00:51:43.806Z,101212.69
2022-12-25T00:54:10.345Z,101207.69
2022-12-25T00:56:37.078Z,101219.31
2022-12-25T00:59:03.698Z,101212.91
2022-12-25T01:01:30.372Z,101206.50
2022-12-25T01:03:57.149Z,101209.38
2022-12-25T01:06:23.699Z,101215.16
2022-12-25T01:09:09.013Z,101218.00
2022-12-25T01:11:35.592Z,101214.41
2022-12-25T01:14:02.143Z,101212.25
2022-12-25T01:16:29.414Z,101231.66
2022-12-25T01:18:56.099Z,101237.41
2022-12-25T01:21:22.787Z,101242.41
2022-12-25T01:23:49.833Z,101229.41
2022-12-25T01:26:16.732Z,101238.78
2022-12-25T01:28:43.287Z,101240.91
2022-12-25T01:31:13.079Z,101245.19
2022-12-25T01:33:40.007Z,101245.06
2022-12-25T01:36:16.660Z,101246.44
2022-12-25T01:38:43.521Z,101240.69
2022-12-25T01:41:10.592Z,101246.44
2022-12-25T01:43:55.011Z,101252.84
2022-12-25T01:46:21.478Z,101259.22
2022-12-25T01:48:47.838Z,101261.25
2022-12-25T01:51:18.286Z,101266.25
2022-12-25T01:53:44.611Z,101276.22
2022-12-25T01:56:11.443Z,101273.34
2022-12-25T01:58:37.814Z,101273.34
2022-12-25T02:01:05.860Z,101279.00
2022-12-25T02:03:32.286Z,101274.03
2022-12-25T02:05:58.902Z,101271.78
2022-12-25T02:08:25.274Z,101276.13
2022-12-25T02:10:51.602Z,101274.66
2022-12-25T02:13:18.349Z,101271.03
2022-12-25T02:16:01.401Z,101273.16
2022-12-25T02:18:33.732Z,101276.03
2022-12-25T02:21:35.334Z,101282.41
2022-12-25T02:24:20.200Z,101275.94
2022-12-25T02:27:05.402Z,101274.41
2022-12-25T02:29:43.848Z,101279.44
2022-12-25T02:32:20.538Z,101278.69
2022-12-25T02:34:46.989Z,101284.44
2022-12-25T02:49:45.534Z,101298.56
2022-12-25T02:52:31.523Z,101288.56
2022-12-25T02:55:27.394Z,101296.56
2022-12-25T02:58:13.754Z,101292.41
2022-12-25T03:00:59.919Z,101299.03
2022-12-25T03:03:45.813Z,101295.50
2022-12-25T03:06:30.600Z,101296.25
2022-12-25T03:09:17.083Z,101287.00
2022-12-25T03:11:43.965Z,101296.47
2022-12-25T03:14:29.866Z,101295.00
2022-12-25T03:16:56.908Z,101287.75
2022-12-25T03:19:44.458Z,101298.50
2022-12-25T03:22:30.859Z,101308.50
2022-12-25T03:25:15.980Z,101294.75
2022-12-25T03:27:42.305Z,101293.28
2022-12-25T03:30:27.397Z,101291.78
2022-12-25T03:33:36.688Z,101295.28
2022-12-25T03:36:04.924Z,101305.41
2022-12-25T03:38:52.194Z,101303.38
2022-12-25T03:41:56.199Z,101318.50
2022-12-25T03:44:43.137Z,101309.25
2022-12-25T03:47:32.451Z,101315.13
2022-12-25T03:50:20.251Z,101320.22
2022-12-25T03:53:05.475Z,101320.97
2022-12-25T03:55:50.322Z,101332.59
2022-12-25T03:58:41.767Z,101329.72
2022-12-25T04:01:27.089Z,101323.97
2022-12-25T04:04:11.928Z,101325.56
2022-12-25T04:06:56.773Z,101322.69
2022-12-25T04:09:41.653Z,101331.31
2022-12-25T04:12:26.798Z,101334.94
2022-12-25T04:15:11.730Z,101329.19
2022-12-25T04:17:56.580Z,101328.44
2022-12-25T04:20:41.564Z,101334.81
2022-12-25T04:23:26.689Z,101334.19
2022-12-25T04:26:11.435Z,101334.19
2022-12-25T04:28:56.247Z,101332.69
2022-12-25T04:31:41.193Z,101345.69
2022-12-25T04:34:26.109Z,101342.94
2022-12-25T04:36:52.460Z,101354.44
2022-12-25T04:39:18.789Z,101347.94
2022-12-25T04:41:45.295Z,101355.16
2022-12-25T04:44:11.613Z,101347.28
2022-12-25T04:46:38.017Z,101345.91
2022-12-25T04:49:04.407Z,101335.91
2022-12-25T04:51:30.762Z,101338.66
2022-12-25T04:53:57.171Z,101340.16
2022-12-25T04:56:23.491Z,101332.91
2022-12-25T04:58:49.865Z,101345.16
2022-12-25T05:01:16.341Z,101342.94
2022-12-25T05:03:42.861Z,101332.91
2022-12-25T05:06:09.272Z,101337.91
2022-12-25T05:08:35.930Z,101345.91
2022-12-25T05:11:06.046Z,101345.91
2022-12-25T05:13:32.444Z,101348.91
2022-12-25T05:15:58.856Z,101356.75
2022-12-25T05:18:25.754Z,101355.41
2022-12-25T05:20:54.959Z,101341.03
2022-12-25T05:23:21.399Z,101338.88
2022-12-25T05:25:47.803Z,101336.75
2022-12-25T05:28:14.157Z,101341.13
2022-12-25T05:30:40.486Z,101336.13
2022-12-25T05:33:06.837Z,101338.25
2022-12-25T05:35:33.195Z,101341.88
2022-12-25T05:37:59.541Z,101340.38
2022-12-25T05:40:25.874Z,101321.63
2022-12-25T05:42:52.215Z,101323.78
2022-12-25T05:45:18.540Z,101326.66
2022-12-25T05:47:44.896Z,101324.50
2022-12-25T05:50:11.231Z,101314.41
2022-12-25T05:52:37.571Z,101314.41
2022-12-25T05:55:03.923Z,101320.91
2022-12-25T05:57:30.563Z,101328.88
2022-12-25T05:59:56.897Z,101307.38
2022-12-25T06:02:23.693Z,101307.38
2022-12-25T06:04:50.068Z,101313.13
2022-12-25T06:07:16.395Z,101308.84
2022-12-25T06:09:42.733Z,101304.50
2022-12-25T06:12:09.406Z,101307.38
2022-12-25T06:14:35.881Z,101310.88
2022-12-25T06:17:02.273Z,101299.38
2022-12-25T06:19:28.652Z,101296.50
2022-12-25T06:21:54.963Z,101294.38
2022-12-25T06:24:21.821Z,101301.63
2022-12-25T06:26:48.236Z,101309.28
2022-12-25T06:29:14.563Z,101314.28
2022-12-25T06:31:40.938Z,101298.63
2022-12-25T06:34:07.298Z,101305.97
2022-12-25T06:36:33.627Z,101300.34
2022-12-25T06:39:00.245Z,101313.34
2022-12-25T06:41:27.440Z,101316.22
2022-12-25T06:43:54.613Z,101306.84
2022-12-25T06:46:21.023Z,101313.34
2022-12-25T06:48:50.295Z,101319.09
2022-12-25T06:51:17.260Z,101323.34
2022-12-25T06:53:43.604Z,101324.84
2022-12-25T06:56:15.129Z,101342.09
2022-12-25T06:58:51.295Z,101352.09
2022-12-25T07:01:21.617Z,101349.22
2022-12-25T07:03:48.506Z,101353.59
2022-12-25T07:06:15.175Z,101342.09
2022-12-25T07:08:41.512Z,101346.34
2022-12-25T07:11:07.828Z,101353.59
2022-12-25T07:13:34.171Z,101349.34
2022-12-25T07:16:00.931Z,101343.59
2022-12-25T07:18:27.320Z,101347.84
2022-12-25T07:20:55.630Z,101347.13
2022-12-25T07:23:22.299Z,101353.59
2022-12-25T07:25:54.980Z,101357.84
2022-12-25T07:28:21.381Z,101367.88
2022-12-25T07:30:47.717Z,101372.22
2022-12-25T07:33:14.059Z,101376.50
2022-12-25T07:35:43.341Z,101374.47
2022-12-25T07:38:09.677Z,101371.59
2022-12-25T07:40:36.011Z,101362.34
2022-12-25T07:43:02.337Z,101369.47
2022-12-25T07:45:28.781Z,101363.81
2022-12-25T07:47:55.789Z,101353.84
2022-12-25T07:50:22.619Z,101365.34
2022-12-25T07:52:48.963Z,101359.59
2022-12-25T07:55:15.299Z,101371.09
2022-12-25T07:57:41.633Z,101362.47
2022-12-25T08:00:08.211Z,101372.56
2022-12-25T08:02:38.401Z,101366.81
2022-12-25T08:05:05.024Z,101378.94
2022-12-25T08:07:31.336Z,101372.56
2022-12-25T08:09:57.692Z,101371.72
2022-12-25T08:12:24.025Z,101383.22
2022-12-25T08:14:50.343Z,101368.84
2022-12-25T08:17:16.684Z,101375.34
2022-12-25T08:19:43.152Z,101376.84
2022-12-25T08:22:09.479Z,101371.09
2022-12-25T08:24:35.804Z,101372.56
2022-12-25T08:27:02.126Z,101359.59
2022-12-25T08:29:28.955Z,101368.31
2022-12-25T08:31:55.379Z,101374.81
2022-12-25T08:34:21.764Z,101374.06
2022-12-25T08:36:48.097Z,101359.66
2022-12-25T08:39:14.431Z,101359.59
2022-12-25T08:41:40.748Z,101349.44
2022-12-25T08:44:07.066Z,101348.09
2022-12-25T08:46:33.432Z,101342.34
2022-12-25T08:48:59.804Z,101343.50
2022-12-25T08:51:26.155Z,101337.13
2022-12-25T08:53:52.684Z,101322.00
2022-12-25T08:56:19.068Z,101325.50
2022-12-25T08:58:45.425Z,101321.25
2022-12-25T09:01:12.125Z,101319.88
2022-12-25T09:03:38.598Z,101326.47
2022-12-25T09:06:11.521Z,101315.69
2022-12-25T09:08:41.128Z,101315.69
2022-12-25T09:11:12.720Z,101314.34
2022-12-25T09:13:39.068Z,101313.59
2022-12-25T09:16:06.219Z,101317.84
2022-12-25T09:18:32.568Z,101318.47
2022-12-25T09:21:02.500Z,101321.25
2022-12-25T09:23:28.832Z,101322.75
2022-12-25T09:25:55.151Z,101324.03
2022-12-25T09:28:21.606Z,101325.69
2022-12-25T09:30:50.172Z,101330.41
2022-12-25T09:33:16.574Z,101334.41
2022-12-25T09:35:42.995Z,101318.56
2022-12-25T09:38:09.311Z,101305.22
2022-12-25T09:40:36.287Z,101308.75
2022-12-25T09:43:02.605Z,101302.16
2022-12-25T09:45:30.010Z,101298.03
2022-12-25T09:47:56.486Z,101300.47
2022-12-25T09:50:24.300Z,101301.44
2022-12-25T09:52:52.742Z,101310.81
2022-12-25T09:55:21.002Z,101314.44
2022-12-25T09:57:49.670Z,101318.78
2022-12-25T10:00:16.599Z,101321.69
2022-12-25T10:02:42.988Z,101318.69
2022-12-25T10:05:16.699Z,101312.94
2022-12-25T10:07:59.709Z,101313.03
2022-12-25T10:10:46.666Z,101328.94
2022-12-25T10:13:18.871Z,101324.66
2022-12-25T10:15:58.000Z,101321.91
2022-12-25T10:18:46.063Z,101319.03
2022-12-25T10:21:13.470Z,101304.97
2022-12-25T10:23:44.996Z,101300.59
2022-12-25T10:26:18.147Z,101307.84
2022-12-25T10:29:04.773Z,101305.06
2022-12-25T10:31:34.006Z,101297.81
2022-12-25T10:34:00.617Z,101293.47
2022-12-25T10:36:27.537Z,101287.72
2022-12-25T10:38:54.054Z,101280.44
2022-12-25T10:41:39.328Z,101275.44
2022-12-25T10:44:12.608Z,101267.56
2022-12-25T10:46:38.988Z,101266.06
2022-12-25T10:49:05.375Z,101261.81
2022-12-25T10:51:32.774Z,101263.91
2022-12-25T10:53:59.179Z,101257.53
2022-12-25T10:56:25.554Z,101263.28
2022-12-25T10:58:51.884Z,101258.28
2022-12-25T11:01:18.276Z,101273.53
2022-12-25T11:03:45.140Z,101265.00
2022-12-25T11:06:21.446Z,101259.38
2022-12-25T11:08:49.808Z,101271.72
2022-12-25T11:11:17.354Z,101265.44
2022-12-25T11:13:54.258Z,101270.03
2022-12-25T11:16:29.878Z,101254.47
2022-12-25T11:18:56.423Z,101256.59
2022-12-25T11:22:43.525Z,101252.88
2022-12-25T11:25:12.042Z,101269.03
2022-12-25T11:27:38.357Z,101266.28
2022-12-25T11:30:04.917Z,101267.16
2022-12-25T11:32:32.988Z,101253.50
2022-12-25T11:34:59.861Z,101233.38
2022-12-25T11:37:37.481Z,101233.38
2022-12-25T11:40:04.203Z,101214.63
2022-12-25T11:42:34.769Z,101210.25
2022-12-25T11:45:07.324Z,101194.34
2022-12-25T11:47:33.553Z,101184.22
2022-12-25T11:50:04.169Z,101175.72
2022-12-25T11:52:32.483Z,101169.22
2022-12-25T11:55:01.869Z,101158.44
2022-12-25T11:57:28.187Z,101155.56
2022-12-25T12:00:04.249Z,101158.44
2022-12-25T12:02:36.125Z,101151.31
2022-12-25T12:05:04.451Z,101149.09
2022-12-25T12:07:30.870Z,101149.81
2022-12-25T12:10:03.138Z,101156.94
2022-12-25T12:12:31.537Z,101174.97
2022-12-25T12:15:00.793Z,101176.25
2022-12-25T12:17:27.125Z,101168.34
2022-12-25T12:19:53.451Z,101169.75
2022-12-25T12:22:21.537Z,101169.84
2022-12-25T12:24:50.394Z,101156.84
2022-12-25T12:27:24.098Z,101145.44
2022-12-25T12:29:50.991Z,101146.94
2022-12-25T12:32:25.224Z,101144.06
2022-12-25T12:34:51.575Z,101141.19
2022-12-25T12:37:24.491Z,101145.22
2022-12-25T12:39:51.474Z,101146.63
2022-12-25T12:42:18.450Z,101144.19
2022-12-25T12:44:44.771Z,101146.88
2022-12-25T12:47:30.357Z,101137.94
2022-12-25T12:49:59.777Z,101143.75
2022-12-25T12:52:45.594Z,101139.81
2022-12-25T12:55:14.838Z,101133.28
2022-12-25T12:57:42.779Z,101135.69
2022-12-25T13:00:15.856Z,101129.41
2022-12-25T13:02:52.069Z,101129.59
2022-12-25T13:05:30.550Z,101129.78
2022-12-25T13:08:12.139Z,101130.00
2022-12-25T13:10:39.160Z,101137.22
2022-12-25T13:13:31.774Z,101127.13
2022-12-25T13:15:58.117Z,101117.56
2022-12-25T13:18:24.447Z,101125.41
2022-12-25T13:20:57.302Z,101120.78
2022-12-25T13:23:32.285Z,101115.84
2022-12-25T13:26:02.231Z,101117.81
2022-12-25T13:28:29.015Z,101114.16
2022-12-25T13:31:02.011Z,101110.56
2022-12-25T13:33:28.362Z,101107.66
2022-12-25T13:35:54.722Z,101103.22
2022-12-25T13:38:21.171Z,101093.25
2022-12-25T13:41:12.592Z,101081.13
2022-12-25T13:43:38.991Z,101070.97
2022-12-25T13:46:05.499Z,101076.72
2022-12-25T13:48:31.885Z,101078.34
2022-12-25T13:50:59.189Z,101069.13
2022-12-25T13:53:26.306Z,101050.56
2022-12-25T13:55:53.013Z,101052.75
2022-12-25T13:58:22.858Z,101057.06
2022-12-25T14:00:49.895Z,101046.25
2022-12-25T14:03:22.965Z,101050.56
2022-12-25T14:06:02.216Z,101051.28
2022-12-25T14:08:29.489Z,101053.53
2022-12-25T14:10:55.850Z,101057.06
2022-12-25T14:13:22.725Z,101060.03
2022-12-25T14:15:50.223Z,101057.97
2022-12-25T14:18:16.985Z,101061.69
2022-12-25T14:20:59.416Z,101068.19
2022-12-25T14:23:25.773Z,101059.63
2022-12-25T14:25:52.199Z,101046.44
2022-12-25T14:28:19.415Z,101042.16
2022-12-25T14:30:45.796Z,101049.97
2022-12-25T14:33:15.865Z,101041.34
2022-12-25T14:35:42.200Z,101041.25
2022-12-25T14:38:09.219Z,101028.25
2022-12-25T14:40:38.457Z,101031.22
2022-12-25T14:43:05.369Z,101027.94
2022-12-25T14:45:35.058Z,101036.03
2022-12-25T14:48:24.993Z,101027.94
2022-12-25T14:51:02.449Z,101010.56
2022-12-25T14:53:33.785Z,101009.09
2022-12-25T14:56:00.157Z,100997.47
2022-12-25T14:58:27.074Z,101004.66
2022-12-25T15:00:56.772Z,101016.72
2022-12-25T15:03:24.760Z,101030.38
2022-12-25T15:05:58.486Z,101007.25
2022-12-25T15:08:24.963Z,101004.28
2022-12-25T15:11:00.948Z,101002.78
2022-12-25T15:13:27.817Z,100988.31
2022-12-25T15:15:56.222Z,100998.31
2022-12-25T15:18:22.629Z,100995.34
2022-12-25T15:20:51.136Z,100996.75
2022-12-25T15:23:20.105Z,100992.38
2022-12-25T15:25:47.498Z,100990.91
2022-12-25T15:28:13.894Z,100990.06
2022-12-25T15:30:42.950Z,101003.72
2022-12-25T15:33:11.946Z,101002.97
2022-12-25T15:35:38.985Z,100999.25
2022-12-25T15:38:05.471Z,100997.78
2022-12-25T15:40:31.877Z,100983.28
2022-12-25T15:42:58.238Z,100970.25
2022-12-25T15:45:28.525Z,100978.91
2022-12-25T15:47:54.952Z,100970.84
2022-12-25T15:50:35.351Z,100973.72
2022-12-25T15:53:02.624Z,100967.88
2022-12-25T15:55:28.992Z,100954.88
2022-12-25T15:57:55.383Z,100954.88
2022-12-25T16:00:22.728Z,100947.63
2022-12-25T16:02:49.475Z,100938.34
2022-12-25T16:05:15.918Z,100939.81
2022-12-25T16:07:42.261Z,100929.81
2022-12-25T16:10:11.595Z,100924.88
2022-12-25T16:12:38.948Z,100925.72
2022-12-25T16:15:05.506Z,100925.72
2022-12-25T16:17:31.845Z,100922.94
2022-12-25T16:19:58.184Z,100922.19
2022-12-25T16:22:31.573Z,100915.66
2022-12-25T16:24:57.912Z,100921.44
2022-12-25T16:27:24.283Z,100917.06
2022-12-25T16:29:50.636Z,100914.94
2022-12-25T16:32:17.024Z,100912.78
2022-12-25T16:34:43.406Z,100909.91
2022-12-25T16:37:09.769Z,100909.91
2022-12-25T16:39:36.737Z,100891.16
2022-12-25T16:42:03.087Z,100885.41
2022-12-25T16:44:32.031Z,100876.69
2022-12-25T16:46:58.630Z,100860.88
2022-12-25T16:49:24.972Z,100851.41
2022-12-25T16:51:51.319Z,100852.19
2022-12-25T16:54:17.728Z,100862.19
2022-12-25T16:56:44.081Z,100855.72
2022-12-25T16:59:10.441Z,100850.69
2022-12-25T17:01:38.179Z,100845.66
2022-12-25T17:04:05.080Z,100837.78
2022-12-25T17:06:31.511Z,100834.97
2022-12-25T17:08:58.367Z,100837.84
2022-12-25T17:11:27.362Z,100848.00
2022-12-25T17:13:54.097Z,100833.59
2022-12-25T17:16:21.286Z,100837.94
2022-12-25T17:18:47.715Z,100833.59
2022-12-25T17:21:16.967Z,100828.56
2022-12-25T17:23:45.028Z,100822.09
2022-12-25T17:26:11.439Z,100824.78
2022-12-25T17:28:37.799Z,100828.56
2022-12-25T17:31:04.536Z,100817.78
2022-12-25T17:33:30.945Z,100817.78
2022-12-25T17:36:03.941Z,100794.75
2022-12-25T17:38:30.912Z,100789.78
2022-12-25T17:40:57.566Z,100792.75
2022-12-25T17:43:23.891Z,100779.91
2022-12-25T17:45:50.215Z,100775.06
2022-12-25T17:48:16.623Z,100767.56
2022-12-25T17:50:43.001Z,100762.47
2022-12-25T17:53:09.357Z,100753.25
2022-12-25T17:55:38.085Z,100760.59
2022-12-25T17:58:04.628Z,100752.03
2022-12-25T18:00:31.259Z,100741.25
2022-12-25T18:02:58.158Z,100740.50
2022-12-25T18:05:24.658Z,100763.72
2022-12-25T18:07:51.021Z,100771.53
2022-12-25T18:10:17.406Z,100785.25
2022-12-25T18:12:44.538Z,100772.69
2022-12-25T18:15:10.972Z,100767.09
2022-12-25T18:17:37.334Z,100768.25
2022-12-25T18:20:04.095Z,100749.72
2022-12-25T18:22:30.435Z,100748.25
2022-12-25T18:24:56.999Z,100729.66
2022-12-25T18:27:27.549Z,100728.19
2022-12-25T18:29:58.000Z,100725.38
2022-12-25T18:32:28.005Z,100731.06
2022-12-25T18:34:54.856Z,100719.38
2022-12-25T18:37:21.483Z,100706.63
2022-12-25T18:39:47.904Z,100709.06
2022-12-25T18:42:33.074Z,100704.09
2022-12-25T18:45:02.389Z,100697.72
2022-12-25T18:47:28.883Z,100687.63
2022-12-25T18:49:58.200Z,100678.00
2022-12-25T18:52:49.304Z,100669.44
2022-12-25T18:55:11.328Z,100660.63
2022-12-25T18:57:39.740Z,100659.09
2022-12-25T19:00:06.493Z,100657.84
2022-12-25T19:02:32.957Z,100659.22
2022-12-25T19:04:59.419Z,100654.97
2022-12-25T19:07:25.782Z,100635.00
2022-12-25T19:09:52.227Z,100628.03
2022-12-25T19:12:18.654Z,100633.78
2022-12-25T19:14:47.226Z,100622.34
2022-12-25T19:17:14.521Z,100618.16
2022-12-25T19:19:40.891Z,100626.81
2022-12-25T19:22:07.226Z,100621.03
2022-12-25T19:24:33.573Z,100607.94
2022-12-25T19:26:59.994Z,100597.34
2022-12-25T19:29:26.470Z,100593.88
2022-12-25T19:31:53.597Z,100588.72
2022-12-25T19:34:20.675Z,100596.66
2022-12-25T19:36:47.026Z,100590.00
2022-12-25T19:39:13.352Z,100592.16
2022-12-25T19:41:39.745Z,100588.53
2022-12-25T19:44:06.083Z,100585.06
2022-12-25T19:46:33.445Z,100573.53
2022-12-25T19:49:04.446Z,100582.03
2022-12-25T19:51:32.938Z,100565.59
2022-12-25T19:54:00.589Z,100574.78
2022-12-25T19:56:28.727Z,100567.00
2022-12-25T19:58:55.344Z,100578.50
2022-12-25T20:01:22.204Z,100581.38
2022-12-25T20:03:48.775Z,100568.56
2022-12-25T20:06:22.767Z,100567.16
2022-12-25T20:08:50.061Z,100560.66
2022-12-25T20:11:16.973Z,100559.25
2022-12-25T20:13:43.306Z,100560.91
2022-12-25T20:16:10.140Z,100568.47
2022-12-25T20:18:36.877Z,100561.22
2022-12-25T20:21:14.030Z,100551.13
2022-12-25T20:23:40.947Z,100555.41
2022-12-25T20:26:07.284Z,100560.41
2022-12-25T20:28:33.862Z,100559.69
2022-12-25T20:31:04.491Z,100550.22
2022-12-25T20:33:30.857Z,100537.97
2022-12-25T20:35:59.942Z,100533.59
2022-12-25T20:38:26.332Z,100540.25
2022-12-25T20:41:25.780Z,100533.25
2022-12-25T20:43:45.907Z,100539.88
2022-12-25T20:46:12.274Z,100539.88
2022-12-25T20:48:38.778Z,100531.91
2022-12-25T20:51:05.845Z,100528.94
2022-12-25T20:53:32.286Z,100525.97
2022-12-25T20:55:58.619Z,100528.94
2022-12-25T20:58:24.967Z,100518.75
2022-12-25T21:00:51.334Z,100512.19
2022-12-25T21:03:20.935Z,100505.53
2022-12-25T21:05:51.237Z,100504.44
2022-12-25T21:08:17.669Z,100502.81
2022-12-25T21:10:45.166Z,100499.88
2022-12-25T21:13:11.499Z,100493.38
2022-12-25T21:15:42.342Z,100485.47
2022-12-25T21:18:08.724Z,100477.56
2022-12-25T21:20:35.074Z,100485.56
2022-12-25T21:23:01.430Z,100491.31
2022-12-25T21:25:27.816Z,100492.78
2022-12-25T21:27:54.190Z,100498.53
2022-12-25T21:30:20.575Z,100492.78
2022-12-25T21:33:05.644Z,100502.81
2022-12-25T21:35:31.991Z,100489.16
2022-12-25T21:37:58.339Z,100483.41
2022-12-25T21:40:24.691Z,100481.19
2022-12-25T21:42:51.660Z,100479.72
2022-12-25T21:45:17.983Z,100484.75
2022-12-25T21:48:01.851Z,100485.38
2022-12-25T21:50:48.024Z,100478.22
2022-12-25T21:53:16.101Z,100483.25
2022-12-25T21:55:42.427Z,100479.63
2022-12-25T21:58:08.749Z,100481.03
2022-12-25T22:00:35.061Z,100488.19
2022-12-25T22:03:01.445Z,100492.44
2022-12-25T22:05:46.797Z,100491.00
2022-12-25T22:08:13.153Z,100479.47
2022-12-25T22:10:39.499Z,100483.75
2022-12-25T22:13:27.329Z,100489.53
2022-12-25T22:16:12.550Z,100493.78
2022-12-25T22:18:57.390Z,100476.44
2022-12-25T22:21:25.194Z,100483.69
2022-12-25T22:23:51.524Z,100477.84
2022-12-25T22:26:21.074Z,100489.28
2022-12-25T22:28:47.577Z,100477.03
2022-12-25T22:31:14.194Z,100469.13
2022-12-25T22:33:40.623Z,100469.13
2022-12-25T22:36:07.527Z,100480.66
2022-12-25T22:38:33.891Z,100472.66
2022-12-25T22:41:06.414Z,100471.94
2022-12-25T22:44:06.743Z,100471.94
2022-12-25T22:46:19.084Z,100468.97
2022-12-25T22:48:45.465Z,100461.00
2022-12-25T22:51:14.708Z,100455.25
2022-12-25T22:53:41.031Z,100460.25
2022-12-25T22:56:10.332Z,100450.91
2022-12-25T22:58:36.670Z,100453.03
2022-12-25T23:01:03.018Z,100450.09
2022-12-25T23:03:31.182Z,100443.59
2022-12-25T23:05:57.635Z,100428.44
2022-12-25T23:08:24.080Z,100432.75
2022-12-25T23:10:50.472Z,100421.88
2022-12-25T23:13:35.264Z,100416.88
2022-12-25T23:16:01.667Z,100427.63
2022-12-25T23:18:46.384Z,100421.16
2022-12-25T23:21:32.020Z,100430.44
2022-12-25T23:24:17.104Z,100428.25
2022-12-25T23:26:43.433Z,100428.41
2022-12-25T23:29:28.536Z,100428.41
2022-12-25T23:31:54.933Z,100428.41
2022-12-25T23:34:21.408Z,100426.91
2022-12-25T23:36:47.737Z,100436.94
2022-12-25T23:39:14.070Z,100426.81
2022-12-25T23:41:40.526Z,100434.00
2022-12-25T23:44:07.076Z,100441.06
2022-12-25T23:46:33.446Z,100438.16
2022-12-25T23:48:59.869Z,100446.81
2022-12-25T23:51:26.185Z,100444.59
2022-12-25T23:53:52.544Z,100441.00
2022-12-25T23:56:18.867Z,100448.88
2022-12-25T23:58:51.332Z,100445.91
